Time;durP1;ratioP1;P1;durP2;ratioP2;P2;SDS_P1;SDS_P2;PMS_P1;PMS_P2;Temp;Humidity;BMP_temperature;BMP_pressure;BME280_temperature;BME280_humidity;BME280_pressure;Samples;Min_cycle;Max_cycle;Signal;HPM_P1;HPM_P2
2023/09/05 00:00:46;;;;;;;2.70;1.30;;;;;;;14.31;100.00;97930.91;110165;1244;67602;-66
2023/09/05 00:03:33;;;;;;;1.50;1.20;;;;;;;14.33;100.00;97930.42;110111;1244;69532;-66
2023/09/05 00:06:10;;;;;;;3.10;1.60;;;;;;;14.34;100.00;97931.05;110128;1241;58944;-66
2023/09/05 00:08:45;;;;;;;1.50;1.30;;;;;;;14.34;100.00;97930.70;110185;1243;58885;-67
2023/09/05 00:11:15;;;;;;;1.60;1.30;;;;;;;14.35;100.00;97930.82;110198;1241;69871;-65
2023/09/05 00:13:46;;;;;;;1.50;1.10;;;;;;;14.35;100.00;97932.50;110186;1241;69200;-65
2023/09/05 00:16:18;;;;;;;2.30;1.20;;;;;;;14.34;100.00;97926.08;110195;1245;69120;-66
2023/09/05 00:18:49;;;;;;;2.40;1.30;;;;;;;14.35;100.00;97926.19;110167;1243;58941;-65
2023/09/05 00:21:20;;;;;;;1.40;1.20;;;;;;;14.36;100.00;97922.46;110197;1241;58864;-66
2023/09/05 00:23:52;;;;;;;1.60;1.30;;;;;;;14.36;100.00;97918.42;110147;1241;70564;-67
2023/09/05 00:26:23;;;;;;;2.20;1.20;;;;;;;14.37;100.00;97919.59;110113;1245;69256;-65
2023/09/05 00:28:56;;;;;;;1.60;1.10;;;;;;;14.36;100.00;97914.54;110102;1244;69165;-65
2023/09/05 00:31:27;;;;;;;2.30;1.40;;;;;;;14.36;100.00;97913.88;110163;1243;58891;-65
2023/09/05 00:34:00;;;;;;;2.30;1.30;;;;;;;14.35;100.00;97913.20;110171;1241;58863;-66
2023/09/05 00:36:32;;;;;;;1.60;1.20;;;;;;;14.35;100.00;97911.96;110140;1241;70613;-66
2023/09/05 00:39:05;;;;;;;1.40;1.20;;;;;;;14.35;100.00;97911.65;110078;1244;69848;-66
2023/09/05 00:41:37;;;;;;;2.50;1.50;;;;;;;14.34;100.00;97909.08;110122;1241;69152;-66
2023/09/05 00:44:17;;;;;;;3.90;2.10;;;;;;;14.32;100.00;97910.86;110157;1245;58921;-66
2023/09/05 00:46:52;;;;;;;2.30;1.60;;;;;;;14.25;100.00;97910.81;110109;1241;58889;-66
2023/09/05 00:49:27;;;;;;;3.50;1.90;;;;;;;14.22;100.00;97915.30;110168;1244;68868;-66
2023/09/05 00:52:00;;;;;;;2.80;1.80;;;;;;;14.17;100.00;97918.00;110095;1244;69851;-66
2023/09/05 00:54:30;;;;;;;1.90;1.60;;;;;;;14.09;100.00;97922.09;110139;1244;69812;-66
2023/09/05 00:57:01;;;;;;;2.60;1.50;;;;;;;14.06;100.00;97917.83;110130;1241;58884;-66
2023/09/05 00:59:34;;;;;;;3.50;2.10;;;;;;;14.03;100.00;97918.02;110184;1244;58889;-66
2023/09/05 01:02:04;;;;;;;2.50;1.60;;;;;;;14.00;100.00;97918.44;110172;1243;69611;-66
2023/09/05 01:04:35;;;;;;;;;;;;;;;13.98;100.00;97918.92;110137;1243;68624;-65
2023/09/05 01:07:07;;;;;;;1.70;1.40;;;;;;;13.99;100.00;97922.03;110097;1241;68804;-65
2023/09/05 01:09:41;;;;;;;1.70;1.40;;;;;;;14.00;100.00;97923.30;110151;1243;58872;-66
2023/09/05 01:12:12;;;;;;;2.80;1.20;;;;;;;14.03;100.00;97925.02;110149;1245;58878;-67
2023/09/05 01:14:45;;;;;;;1.70;1.40;;;;;;;14.05;100.00;97926.32;110166;1243;69644;-66
2023/09/05 01:17:16;;;;;;;1.90;1.50;;;;;;;14.07;100.00;97920.73;110169;1244;69381;-66
2023/09/05 01:19:54;;;;;;;2.10;1.50;;;;;;;14.09;100.00;97920.16;110023;1245;69112;-66
2023/09/05 01:22:34;;;;;;;3.20;2.60;;;;;;;14.10;100.00;97919.04;110176;1241;58954;-66
2023/09/05 01:25:08;;;;;;;1.80;1.60;;;;;;;14.10;100.00;97919.78;110119;1242;58892;-66
2023/09/05 01:27:43;;;;;;;2.50;1.70;;;;;;;14.10;100.00;97918.18;110121;1244;68780;-66
2023/09/05 01:30:14;;;;;;;2.70;1.80;;;;;;;14.10;100.00;97917.16;110116;1243;68478;-66
2023/09/05 01:32:46;;;;;;;1.90;1.50;;;;;;;14.09;100.00;97914.23;110092;1241;69704;-66
2023/09/05 01:35:19;;;;;;;2.90;1.90;;;;;;;14.09;100.00;97909.48;110041;1244;58947;-66
2023/09/05 01:37:53;;;;;;;1.60;1.50;;;;;;;14.10;100.00;97910.48;110166;1245;58827;-66
2023/09/05 01:40:24;;;;;;;1.40;1.20;;;;;;;14.11;100.00;97911.13;110148;1244;69736;-65
2023/09/05 01:42:54;;;;;;;3.30;1.70;;;;;;;14.11;100.00;97913.71;110161;1243;69235;-65
2023/09/05 01:45:26;;;;;;;1.40;1.20;;;;;;;14.12;100.00;97909.59;110118;1244;68704;-65
2023/09/05 01:47:58;;;;;;;1.80;1.20;;;;;;;14.12;100.00;97906.93;110105;1244;58951;-65
2023/09/05 01:50:35;;;;;;;2.20;1.30;;;;;;;14.13;100.00;97908.13;110127;1245;58872;-65
2023/09/05 01:53:09;;;;;;;2.90;1.30;;;;;;;14.12;100.00;97915.90;110134;1242;70408;-65
2023/09/05 01:55:43;;;;;;;2.00;1.50;;;;;;;14.09;100.00;97914.95;110147;1245;69078;-65
2023/09/05 01:58:16;;;;;;;2.10;1.50;;;;;;;14.07;100.00;97914.23;110138;1244;69909;-65
2023/09/05 02:00:48;;;;;;;3.00;1.40;;;;;;;14.07;100.00;97906.69;110178;1244;58929;-65
2023/09/05 02:03:19;;;;;;;1.50;1.20;;;;;;;14.07;100.00;97907.40;110111;1243;58934;-65
2023/09/05 02:05:49;;;;;;;2.60;1.40;;;;;;;14.07;100.00;97910.02;110130;1243;70510;-66
2023/09/05 02:08:23;;;;;;;2.20;1.50;;;;;;;14.08;100.00;97914.63;110119;1243;68293;-67
2023/09/05 02:10:54;;;;;;;2.20;1.40;;;;;;;14.08;100.00;97915.40;110063;1244;67562;-65
2023/09/05 02:13:26;;;;;;;2.90;1.50;;;;;;;14.07;100.00;97916.14;110143;1244;58869;-65
2023/09/05 02:15:57;;;;;;;2.40;1.60;;;;;;;14.05;100.00;97916.30;110114;1242;58881;-65
2023/09/05 02:18:28;;;;;;;2.10;1.30;;;;;;;14.06;100.00;97919.60;110042;1244;70693;-66
2023/09/05 02:21:01;;;;;;;1.30;1.20;;;;;;;14.04;100.00;97919.71;110135;1243;69036;-68
2023/09/05 02:23:33;;;;;;;1.70;1.40;;;;;;;14.03;100.00;97924.01;110135;1241;69208;-67
2023/09/05 02:26:07;;;;;;;1.70;1.50;;;;;;;14.02;100.00;97929.35;110147;1241;58920;-67
2023/09/05 02:28:40;;;;;;;1.80;1.60;;;;;;;13.99;100.00;97928.00;110185;1241;58908;-65
2023/09/05 02:31:11;;;;;;;2.20;1.50;;;;;;;13.96;100.00;97930.91;110129;1244;70699;-65
2023/09/05 02:33:42;;;;;;;3.50;1.70;;;;;;;13.90;100.00;97933.95;110085;1241;68536;-65
2023/09/05 02:36:21;;;;;;;2.60;1.60;;;;;;;13.85;100.00;97940.50;110162;1241;69130;-65
2023/09/05 02:38:52;;;;;;;2.40;2.00;;;;;;;13.79;100.00;97942.55;110147;1241;58906;-67
2023/09/05 02:41:23;;;;;;;2.00;1.60;;;;;;;13.73;100.00;97948.25;110121;1243;58879;-66
2023/09/05 02:43:54;;;;;;;3.80;2.00;;;;;;;13.67;100.00;97952.20;110128;1245;70602;-66
2023/09/05 02:46:25;;;;;;;3.50;2.00;;;;;;;13.61;100.00;97950.55;110118;1241;67725;-66
2023/09/05 02:48:56;;;;;;;3.30;2.20;;;;;;;13.55;100.00;97953.65;110115;1244;69239;-66
2023/09/05 02:51:28;;;;;;;2.50;2.10;;;;;;;13.50;100.00;97953.30;110108;1244;58951;-66
2023/09/05 02:54:00;;;;;;;2.80;2.20;;;;;;;13.45;100.00;97957.55;110136;1241;58928;-65
2023/09/05 02:56:33;;;;;;;2.40;1.80;;;;;;;13.42;100.00;97960.43;110117;1241;70604;-66
2023/09/05 02:59:05;;;;;;;3.00;2.10;;;;;;;13.37;100.00;97955.17;110102;1244;69289;-66
2023/09/05 03:01:37;;;;;;;3.50;1.80;;;;;;;13.34;100.00;97953.13;110146;1244;69519;-68
2023/09/05 03:04:07;;;;;;;2.60;1.90;;;;;;;13.32;100.00;97951.58;110085;1245;58872;-66
2023/09/05 03:06:38;;;;;;;2.90;1.90;;;;;;;13.28;100.00;97957.13;110073;1241;58876;-66
2023/09/05 03:09:10;;;;;;;3.00;1.80;;;;;;;13.23;100.00;97957.12;110093;1245;69693;-66
2023/09/05 03:11:41;;;;;;;3.20;2.10;;;;;;;13.17;100.00;97961.52;110133;1244;69059;-66
2023/09/05 03:14:12;;;;;;;3.20;1.80;;;;;;;13.14;100.00;97962.88;110169;1243;69328;-66
2023/09/05 03:16:45;;;;;;;2.50;1.80;;;;;;;13.10;100.00;97962.63;110162;1245;58887;-66
2023/09/05 03:19:15;;;;;;;2.40;1.90;;;;;;;13.07;100.00;97962.66;110075;1244;58841;-66
2023/09/05 03:21:47;;;;;;;2.10;1.70;;;;;;;13.04;100.00;97963.91;110137;1244;70644;-66
2023/09/05 03:24:17;;;;;;;2.40;1.50;;;;;;;13.02;100.00;97965.61;110151;1241;69762;-66
2023/09/05 03:26:49;;;;;;;2.40;1.80;;;;;;;13.01;100.00;97965.16;110173;1243;67727;-67
2023/09/05 03:29:18;;;;;;;2.50;1.80;;;;;;;13.00;100.00;97969.27;110105;1244;58878;-66
2023/09/05 03:31:48;;;;;;;2.10;1.80;;;;;;;12.98;100.00;97974.14;110130;1241;58797;-66
2023/09/05 03:34:18;;;;;;;1.50;1.40;;;;;;;12.96;100.00;97974.98;110139;1251;70078;-66
2023/09/05 03:36:49;;;;;;;2.40;1.60;;;;;;;12.95;100.00;97977.20;110147;1241;69840;-66
2023/09/05 03:39:19;;;;;;;1.90;1.60;;;;;;;12.92;100.00;97982.66;110128;1241;69282;-64
2023/09/05 03:41:51;;;;;;;2.40;1.80;;;;;;;12.90;100.00;97987.68;110129;1245;58943;-66
2023/09/05 03:44:21;;;;;;;1.80;1.60;;;;;;;12.86;100.00;97989.21;110053;1244;58873;-66
2023/09/05 03:46:51;;;;;;;2.70;2.00;;;;;;;12.81;100.00;97986.98;110135;1241;70566;-65
2023/09/05 03:49:21;;;;;;;2.80;2.30;;;;;;;12.78;100.00;97988.95;110184;1241;69739;-65
2023/09/05 03:51:57;;;;;;;3.20;2.10;;;;;;;12.74;100.00;97991.07;110104;1243;68342;-66
2023/09/05 03:54:28;;;;;;;2.10;1.70;;;;;;;12.72;100.00;97994.78;110146;1241;58903;-66
2023/09/05 03:56:58;;;;;;;3.10;1.70;;;;;;;12.70;100.00;97995.95;110101;1243;58934;-66
2023/09/05 03:59:27;;;;;;;3.40;1.70;;;;;;;12.70;100.00;98001.92;110202;1241;71184;-66
2023/09/05 04:01:58;;;;;;;3.10;2.20;;;;;;;12.68;100.00;98002.92;110139;1243;69168;-65
2023/09/05 04:04:28;;;;;;;2.80;1.90;;;;;;;12.67;100.00;98004.59;110063;1244;69282;-66
2023/09/05 04:07:00;;;;;;;2.50;1.80;;;;;;;12.67;100.00;98011.23;110152;1244;58941;-65
2023/09/05 04:09:30;;;;;;;2.90;2.00;;;;;;;12.67;100.00;98015.42;110161;1241;58857;-65
2023/09/05 04:12:01;;;;;;;2.40;1.90;;;;;;;12.68;100.00;98015.84;110056;1245;70833;-65
2023/09/05 04:14:32;;;;;;;2.10;1.70;;;;;;;12.69;100.00;98017.69;110121;1243;69655;-65
2023/09/05 04:17:02;;;;;;;;;;;;;;;12.71;100.00;98018.25;110133;1245;69298;-65
2023/09/05 04:19:31;;;;;;;3.20;1.90;;;;;;;12.77;100.00;98025.53;110101;1243;58860;-66
2023/09/05 04:22:01;;;;;;;2.30;1.70;;;;;;;12.88;100.00;98029.63;110070;1243;59251;-66
2023/09/05 04:24:31;;;;;;;;;;;;;;;13.03;100.00;98033.78;110118;1244;70764;-66
2023/09/05 04:27:02;;;;;;;3.30;1.60;;;;;;;13.21;100.00;98031.96;110159;1243;69261;-66
2023/09/05 04:29:32;;;;;;;2.20;1.90;;;;;;;13.42;100.00;98036.40;110106;1244;69507;-66
2023/09/05 04:32:02;;;;;;;2.20;1.60;;;;;;;13.64;100.00;98039.99;110127;1244;58938;-66
2023/09/05 04:34:34;;;;;;;1.80;1.60;;;;;;;13.86;100.00;98037.85;110155;1245;58823;-66
2023/09/05 04:37:06;;;;;;;3.20;2.10;;;;;;;14.01;100.00;98033.84;110182;1245;69991;-66
2023/09/05 04:39:37;;;;;;;2.10;1.70;;;;;;;14.10;100.00;98031.72;110145;1244;68551;-66
2023/09/05 04:42:08;;;;;;;2.00;1.30;;;;;;;14.19;100.00;98032.47;110111;1244;69639;-66
2023/09/05 04:44:38;;;;;;;3.50;1.80;;;;;;;14.29;100.00;98027.33;110145;1242;58902;-66
2023/09/05 04:47:29;;;;;;;3.10;1.90;;;;;;;14.42;100.00;98025.93;110174;1241;58925;-66
2023/09/05 04:50:00;;;;;;;4.60;2.00;;;;;;;14.62;100.00;98024.67;110148;1241;69623;-66
2023/09/05 04:52:30;;;;;;;2.20;2.00;;;;;;;14.93;100.00;98028.52;109612;1243;724598;-65
2023/09/05 04:55:00;;;;;;;3.50;2.20;;;;;;;15.26;100.00;98028.36;110104;1241;68501;-67
2023/09/05 04:57:30;;;;;;;2.70;2.30;;;;;;;15.50;100.00;98033.17;110166;1244;58944;-66
2023/09/05 04:59:59;;;;;;;2.20;1.90;;;;;;;15.65;100.00;98035.42;110171;1241;58942;-66
2023/09/05 05:02:31;;;;;;;2.80;2.10;;;;;;;15.74;100.00;98033.83;110104;1241;69665;-66
2023/09/05 05:05:01;;;;;;;3.20;2.10;;;;;;;15.89;100.00;98034.48;110110;1245;69224;-66
2023/09/05 05:07:30;;;;;;;2.60;2.00;;;;;;;16.15;100.00;98039.37;110123;1243;68857;-66
2023/09/05 05:10:00;;;;;;;3.60;2.40;;;;;;;16.18;100.00;98038.56;110192;1245;58857;-66
2023/09/05 05:12:29;;;;;;;;;;;;;;;16.29;100.00;98035.16;110159;1242;58879;-66
2023/09/05 05:14:58;;;;;;;3.80;2.90;;;;;;;16.42;100.00;98028.58;110164;1244;70577;-66
2023/09/05 05:17:28;;;;;;;2.70;2.30;;;;;;;16.53;100.00;98034.26;110107;1241;70123;-66
2023/09/05 05:19:59;;;;;;;3.30;2.40;;;;;;;16.62;100.00;98036.50;110122;1241;67529;-66
2023/09/05 05:22:28;;;;;;;2.60;2.20;;;;;;;16.78;99.83;98038.98;110133;1245;58894;-66
2023/09/05 05:24:59;;;;;;;3.60;2.30;;;;;;;17.03;100.00;98043.82;110084;1244;58879;-66
2023/09/05 05:27:29;;;;;;;2.90;2.10;;;;;;;17.32;99.57;98044.71;110128;1243;71162;-66
2023/09/05 05:29:59;;;;;;;3.40;2.20;;;;;;;17.70;100.00;98048.50;110164;1241;68315;-66
2023/09/05 05:32:29;;;;;;;2.10;1.80;;;;;;;18.01;100.00;98048.82;110134;1241;69248;-65
2023/09/05 05:34:58;;;;;;;2.20;2.00;;;;;;;18.26;98.04;98049.84;110140;1241;58889;-66
2023/09/05 05:37:28;;;;;;;3.60;2.30;;;;;;;18.45;96.82;98049.42;110162;1241;58935;-66
2023/09/05 05:39:57;;;;;;;2.10;1.70;;;;;;;18.38;91.25;98046.00;110133;1244;69519;-67
2023/09/05 05:42:27;;;;;;;2.70;1.80;;;;;;;18.41;88.58;98040.70;110158;1242;69940;-65
2023/09/05 05:44:56;;;;;;;3.90;2.20;;;;;;;18.42;87.13;98036.52;110171;1241;68821;-67
2023/09/05 05:47:25;;;;;;;2.60;2.10;;;;;;;18.56;87.41;98029.45;110148;1241;59156;-67
2023/09/05 05:49:54;;;;;;;2.60;1.90;;;;;;;18.78;87.79;98030.23;110156;1244;58837;-66
2023/09/05 05:52:23;;;;;;;2.60;1.90;;;;;;;19.03;86.83;98034.16;110185;1244;71062;-66
2023/09/05 05:54:53;;;;;;;2.30;1.70;;;;;;;19.44;93.22;98032.80;110150;1241;68470;-65
2023/09/05 05:57:22;;;;;;;2.30;2.00;;;;;;;19.79;89.13;98035.11;110111;1241;68594;-65
2023/09/05 05:59:53;;;;;;;3.10;1.70;;;;;;;20.16;85.40;98037.90;110153;1246;58873;-65
2023/09/05 06:02:22;;;;;;;4.10;1.80;;;;;;;20.53;88.78;98036.81;110152;1244;58877;-65
2023/09/05 06:04:51;;;;;;;2.60;1.80;;;;;;;20.74;84.54;98040.83;110184;1243;71178;-65
2023/09/05 06:07:20;;;;;;;;;;;;;;;20.91;81.22;98042.43;110173;1244;69066;-67
2023/09/05 06:09:49;;;;;;;2.90;1.90;;;;;;;21.19;83.69;98043.02;110179;1241;69706;-65
2023/09/05 06:12:18;;;;;;;3.70;2.40;;;;;;;21.56;83.86;98047.00;110153;1241;58861;-65
2023/09/05 06:14:47;;;;;;;;;;;;;;;21.73;76.66;98042.31;110137;1242;58892;-65
2023/09/05 06:17:17;;;;;;;3.10;2.00;;;;;;;21.65;76.52;98043.02;110109;1245;70597;-65
2023/09/05 06:19:46;;;;;;;2.00;1.80;;;;;;;21.91;75.32;98043.17;110112;1245;69805;-65
2023/09/05 06:22:15;;;;;;;;;;;;;;;21.94;69.68;98041.25;110091;1244;69321;-65
2023/09/05 06:24:44;;;;;;;4.30;2.30;;;;;;;21.86;70.78;98045.00;110141;1243;58937;-65
2023/09/05 06:27:14;;;;;;;4.10;2.20;;;;;;;21.72;69.75;98043.85;110137;1241;58875;-66
2023/09/05 06:29:43;;;;;;;2.80;2.20;;;;;;;21.38;68.69;98048.45;110092;1242;71255;-67
2023/09/05 06:32:12;;;;;;;3.30;2.20;;;;;;;21.28;69.36;98048.15;110150;1244;69083;-67
2023/09/05 06:34:42;;;;;;;4.20;2.10;;;;;;;21.64;70.37;98049.38;110095;1243;69915;-65
2023/09/05 06:37:11;;;;;;;3.10;2.10;;;;;;;21.60;68.95;98050.07;110096;1244;58959;-64
2023/09/05 06:39:40;;;;;;;2.60;2.40;;;;;;;21.81;68.33;98050.83;110124;1243;58872;-65
2023/09/05 06:42:10;;;;;;;3.10;2.00;;;;;;;22.15;67.35;98051.02;110137;1241;70429;-64
2023/09/05 06:44:40;;;;;;;3.60;2.40;;;;;;;22.68;68.83;98052.27;110125;1242;69241;-67
2023/09/05 06:47:09;;;;;;;2.90;2.50;;;;;;;22.84;64.97;98051.83;110181;1243;69250;-65
2023/09/05 06:49:38;;;;;;;3.30;2.50;;;;;;;22.83;64.50;98055.02;110205;1241;59005;-67
2023/09/05 06:52:08;;;;;;;2.70;2.40;;;;;;;22.76;64.27;98058.58;110181;1244;58875;-65
2023/09/05 06:54:37;;;;;;;2.70;2.30;;;;;;;22.74;63.23;98059.58;110133;1247;71155;-65
2023/09/05 06:57:08;;;;;;;3.60;2.40;;;;;;;22.71;63.76;98064.52;110150;1245;68492;-65
2023/09/05 06:59:37;;;;;;;3.80;2.90;;;;;;;23.00;64.00;98062.66;110170;1241;69250;-65
2023/09/05 07:02:06;;;;;;;3.00;2.40;;;;;;;23.31;62.68;98064.13;110127;1245;58940;-66
2023/09/05 07:04:36;;;;;;;3.80;2.80;;;;;;;23.36;61.30;98061.56;110156;1244;58876;-64
2023/09/05 07:07:06;;;;;;;3.70;3.30;;;;;;;23.68;60.99;98057.54;110111;1244;69822;-63
2023/09/05 07:09:35;;;;;;;4.30;3.20;;;;;;;24.06;58.15;98060.77;110124;1241;69379;-63
2023/09/05 07:12:06;;;;;;;4.20;3.60;;;;;;;23.82;58.54;98063.67;110171;1241;68538;-65
2023/09/05 07:14:35;;;;;;;3.60;2.80;;;;;;;23.51;57.89;98057.02;110167;1245;58874;-66
2023/09/05 07:17:07;;;;;;;3.20;2.60;;;;;;;23.54;60.01;98059.83;110184;1241;58948;-65
2023/09/05 07:19:36;;;;;;;3.20;2.90;;;;;;;23.57;60.32;98054.35;110150;1241;70896;-64
2023/09/05 07:22:07;;;;;;;3.00;2.70;;;;;;;23.72;60.89;98057.96;110180;1243;69710;-66
2023/09/05 07:24:36;;;;;;;3.70;3.10;;;;;;;23.76;59.84;98057.52;110108;1241;69883;-64
2023/09/05 07:27:05;;;;;;;3.60;3.30;;;;;;;23.83;58.58;98060.77;110187;1244;58992;-66
2023/09/05 07:29:34;;;;;;;3.10;2.80;;;;;;;23.82;57.43;98056.77;110137;1241;58848;-66
2023/09/05 07:32:04;;;;;;;3.60;3.10;;;;;;;23.89;58.42;98052.77;110145;1244;70312;-64
2023/09/05 07:34:33;;;;;;;;;;;;;;;23.94;58.69;98055.40;110152;1244;69321;-63
2023/09/05 07:37:03;;;;;;;3.90;3.20;;;;;;;23.93;58.11;98054.98;110087;1244;69492;-64
2023/09/05 07:39:32;;;;;;;3.20;2.80;;;;;;;23.86;58.44;98057.05;110084;1245;58946;-64
2023/09/05 07:42:01;;;;;;;3.90;3.30;;;;;;;23.88;58.73;98048.48;110144;1244;58843;-63
2023/09/05 07:44:30;;;;;;;;;;;;;;;23.81;59.06;98050.97;110188;1244;70617;-64
2023/09/05 07:46:59;;;;;;;5.30;3.70;;;;;;;23.74;57.87;98046.88;110179;1241;69315;-65
2023/09/05 07:49:31;;;;;;;5.30;4.80;;;;;;;23.68;58.62;98043.61;110188;1245;69329;-67
2023/09/05 07:52:00;;;;;;;5.70;4.70;;;;;;;23.73;58.47;98047.02;110186;1245;59181;-64
2023/09/05 07:54:30;;;;;;;4.50;3.90;;;;;;;23.74;58.75;98046.88;110118;1241;59180;-64
2023/09/05 07:56:58;;;;;;;;;;;;;;;23.80;57.93;98044.58;110172;1245;71179;-64
2023/09/05 07:59:28;;;;;;;4.30;3.30;;;;;;;23.74;55.27;98044.00;110111;1245;69657;-64
2023/09/05 08:01:57;;;;;;;4.20;3.00;;;;;;;23.97;57.05;98042.80;110155;1241;68316;-64
2023/09/05 08:04:28;;;;;;;3.30;3.00;;;;;;;24.13;55.03;98041.17;110112;1246;58934;-64
2023/09/05 08:06:58;;;;;;;3.30;3.00;;;;;;;24.37;54.98;98038.12;110175;1241;58793;-64
2023/09/05 08:09:27;;;;;;;3.00;2.70;;;;;;;24.62;54.94;98038.73;110152;1244;71178;-64
2023/09/05 08:11:56;;;;;;;3.80;2.50;;;;;;;24.91;53.93;98037.86;110133;1241;69277;-64
2023/09/05 08:14:26;;;;;;;5.50;3.40;;;;;;;25.10;52.19;98034.55;110144;1245;68737;-64
2023/09/05 08:16:55;;;;;;;4.00;3.20;;;;;;;24.97;50.74;98036.42;110157;1241;58859;-65
2023/09/05 08:19:24;;;;;;;3.90;3.50;;;;;;;25.11;51.06;98034.20;110144;1243;58937;-64
2023/09/05 08:21:53;;;;;;;4.30;3.80;;;;;;;25.46;49.33;98033.79;110138;1245;71162;-64
2023/09/05 08:24:24;;;;;;;5.20;3.60;;;;;;;25.80;50.03;98031.09;110152;1244;69283;-64
2023/09/05 08:26:53;;;;;;;3.30;3.00;;;;;;;26.06;46.40;98028.42;110144;1241;69262;-64
2023/09/05 08:29:24;;;;;;;3.70;3.40;;;;;;;26.59;45.93;98027.48;110149;1241;58938;-64
2023/09/05 08:31:54;;;;;;;3.00;2.70;;;;;;;27.14;44.50;98028.34;110164;1245;58921;-65
2023/09/05 08:34:23;;;;;;;3.70;3.30;;;;;;;27.77;45.51;98031.45;110157;1241;71057;-63
2023/09/05 08:36:52;;;;;;;4.20;3.70;;;;;;;28.31;46.05;98034.20;110188;1245;69863;-64
2023/09/05 08:39:21;;;;;;;3.90;3.40;;;;;;;28.82;44.89;98037.52;110180;1241;69058;-65
2023/09/05 08:41:52;;;;;;;4.70;3.30;;;;;;;28.67;41.22;98032.84;110165;1241;58944;-64
2023/09/05 08:44:21;;;;;;;3.90;3.50;;;;;;;29.09;40.47;98030.73;110125;1244;58872;-64
2023/09/05 08:46:51;;;;;;;4.00;3.50;;;;;;;29.21;40.89;98027.59;110120;1243;70561;-64
2023/09/05 08:49:20;;;;;;;4.70;4.10;;;;;;;29.33;39.89;98031.00;110166;1243;68440;-63
2023/09/05 08:51:56;;;;;;;4.80;3.80;;;;;;;29.47;40.04;98033.57;110147;1244;70260;-64
2023/09/05 08:54:25;;;;;;;7.00;4.30;;;;;;;29.71;38.89;98034.59;110182;1245;58943;-66
2023/09/05 08:56:56;;;;;;;3.90;3.30;;;;;;;29.63;38.17;98035.88;110150;1247;58892;-64
2023/09/05 08:59:26;;;;;;;4.70;4.30;;;;;;;29.60;38.86;98038.18;110159;1243;70543;-64
2023/09/05 09:01:56;;;;;;;4.00;3.60;;;;;;;29.55;39.36;98037.17;110151;1245;69840;-64
2023/09/05 09:04:26;;;;;;;4.50;3.60;;;;;;;29.61;38.91;98042.77;110128;1243;69246;-64
2023/09/05 09:07:00;;;;;;;4.50;3.60;;;;;;;29.93;39.47;98041.10;110150;1245;58875;-63
2023/09/05 09:09:39;;;;;;;4.20;3.50;;;;;;;30.25;37.47;98042.63;110166;1245;58875;-63
2023/09/05 09:12:09;;;;;;;3.80;3.40;;;;;;;30.25;37.54;98042.12;110164;1241;71150;-64
2023/09/05 09:14:37;;;;;;;4.20;3.80;;;;;;;30.29;37.62;98043.98;110171;1245;68838;-64
2023/09/05 09:17:09;;;;;;;5.10;4.60;;;;;;;29.82;37.98;98043.45;110171;1245;69871;-64
2023/09/05 09:19:38;;;;;;;4.40;4.00;;;;;;;30.29;36.01;98044.64;110125;1244;58953;-64
2023/09/05 09:22:08;;;;;;;5.00;4.10;;;;;;;29.14;37.64;98044.48;110152;1241;58860;-64
2023/09/05 09:24:39;;;;;;;4.50;4.00;;;;;;;28.76;37.99;98044.33;110152;1242;71173;-64
2023/09/05 09:27:08;;;;;;;3.40;3.10;;;;;;;28.76;37.37;98037.55;110119;1244;69882;-64
2023/09/05 09:29:39;;;;;;;5.70;3.80;;;;;;;29.26;37.70;98038.47;110152;1245;69566;-64
2023/09/05 09:32:09;;;;;;;6.90;4.00;;;;;;;29.62;37.30;98036.80;110112;1245;58956;-65
2023/09/05 09:34:41;;;;;;;5.10;3.50;;;;;;;29.13;36.94;98037.24;110136;1241;58892;-64
2023/09/05 09:37:12;;;;;;;5.40;4.90;;;;;;;28.83;37.92;98038.89;110149;1244;69554;-65
2023/09/05 09:39:41;;;;;;;5.00;4.50;;;;;;;28.59;37.99;98038.43;110171;1246;69282;-64
2023/09/05 09:42:10;;;;;;;4.40;4.00;;;;;;;28.12;37.97;98042.70;110118;1244;69778;-64
2023/09/05 09:44:40;;;;;;;4.20;3.80;;;;;;;28.00;39.31;98041.59;110175;1244;58924;-65
2023/09/05 09:47:10;;;;;;;4.10;3.10;;;;;;;28.33;39.56;98043.09;110161;1245;58798;-65
2023/09/05 09:49:45;;;;;;;4.30;3.90;;;;;;;28.66;39.36;98037.98;110155;1244;71751;-64
2023/09/05 09:52:16;;;;;;;4.90;4.40;;;;;;;28.44;38.98;98038.66;110147;1241;69808;-65
2023/09/05 09:54:46;;;;;;;4.30;3.90;;;;;;;28.06;38.87;98038.05;110145;1241;69382;-65
2023/09/05 09:57:23;;;;;;;4.80;4.40;;;;;;;27.56;39.11;98035.46;110182;1248;58938;-66
2023/09/05 10:00:17;;;;;;;4.80;4.30;;;;;;;27.05;40.47;98029.18;110165;1245;58913;-65
2023/09/05 10:02:48;;;;;;;5.30;4.10;;;;;;;26.93;41.45;98029.83;110132;1241;69617;-65
2023/09/05 10:05:23;;;;;;;5.30;4.20;;;;;;;27.15;41.23;98025.50;110153;1242;70039;-64
2023/09/05 10:07:54;;;;;;;3.80;3.50;;;;;;;28.24;38.97;98020.14;110119;1245;68107;-65
2023/09/05 10:10:24;;;;;;;3.60;3.30;;;;;;;28.93;36.52;98017.77;110172;1242;58894;-66
2023/09/05 10:12:56;;;;;;;3.40;3.10;;;;;;;29.81;36.07;98017.14;110116;1243;58909;-66
2023/09/05 10:15:28;;;;;;;4.00;3.10;;;;;;;30.78;36.69;98017.88;110140;1244;71159;-65
2023/09/05 10:17:58;;;;;;;4.60;3.30;;;;;;;31.21;35.26;98017.16;110186;1243;69202;-65
2023/09/05 10:20:31;;;;;;;4.00;3.70;;;;;;;31.39;33.33;98018.12;110156;1241;68747;-65
2023/09/05 10:23:01;;;;;;;3.50;3.20;;;;;;;31.50;32.06;98014.52;110129;1245;58852;-64
2023/09/05 10:25:31;;;;;;;3.40;3.10;;;;;;;30.88;32.28;98011.15;110154;1241;58894;-65
2023/09/05 10:28:00;;;;;;;3.50;2.90;;;;;;;31.13;31.78;98016.48;110167;1245;70892;-65
2023/09/05 10:30:29;;;;;;;3.50;3.10;;;;;;;31.31;31.67;98009.24;110174;1244;68595;-65
2023/09/05 10:32:59;;;;;;;3.10;2.80;;;;;;;31.16;32.03;98011.33;110152;1241;70219;-65
2023/09/05 10:35:30;;;;;;;3.20;2.90;;;;;;;31.73;32.69;98010.61;110143;1245;58867;-66
2023/09/05 10:38:02;;;;;;;3.50;2.90;;;;;;;32.80;32.66;98009.77;110139;1243;58821;-65
2023/09/05 10:40:33;;;;;;;3.00;2.70;;;;;;;33.26;32.19;98009.23;110155;1245;71512;-65
2023/09/05 10:43:05;;;;;;;3.00;2.70;;;;;;;32.80;32.34;98006.35;110170;1245;69817;-66
2023/09/05 10:45:35;;;;;;;2.80;2.30;;;;;;;32.54;32.02;98003.38;110147;1241;69884;-65
2023/09/05 10:48:12;;;;;;;3.00;2.70;;;;;;;32.54;32.31;98001.05;110127;1241;58863;-65
2023/09/05 10:51:05;;;;;;;3.90;3.10;;;;;;;32.48;33.35;97999.53;110120;1244;58883;-65
2023/09/05 10:53:44;;;;;;;3.50;2.60;;;;;;;31.75;32.26;97995.75;110109;1244;70580;-64
2023/09/05 10:56:49;;;;;;;5.10;3.30;;;;;;;31.46;33.86;97996.75;110137;1243;70175;-66
2023/09/05 10:59:27;;;;;;;3.20;2.70;;;;;;;30.91;33.94;97987.20;109437;1251;69648;-64
2023/09/05 11:02:08;;;;;;;3.80;2.80;;;;;;;30.59;35.00;97995.09;110083;1243;58934;-66
2023/09/05 11:04:38;;;;;;;4.80;3.10;;;;;;;30.23;35.66;97993.40;110153;1243;58967;-66
2023/09/05 11:07:10;;;;;;;4.20;2.90;;;;;;;30.33;35.93;97994.92;110165;1245;69852;-65
2023/09/05 11:09:40;;;;;;;3.50;2.90;;;;;;;30.17;35.54;97992.45;110136;1245;68735;-64
2023/09/05 11:12:09;;;;;;;3.20;2.90;;;;;;;29.90;35.97;97987.09;110167;1246;68466;-65
2023/09/05 11:14:39;;;;;;;3.00;2.50;;;;;;;29.54;35.97;97983.36;110154;1245;58830;-65
2023/09/05 11:17:13;;;;;;;3.50;3.00;;;;;;;29.48;35.83;97984.52;110136;1246;58934;-64
2023/09/05 11:19:46;;;;;;;3.10;2.70;;;;;;;29.37;35.49;97976.71;110170;1243;71043;-64
2023/09/05 11:22:22;;;;;;;2.80;2.50;;;;;;;29.60;34.87;97973.52;110145;1245;70135;-65
2023/09/05 11:24:54;;;;;;;4.10;2.70;;;;;;;29.40;34.73;97974.34;110151;1245;69058;-66
2023/09/05 11:27:25;;;;;;;3.40;3.00;;;;;;;29.58;35.53;97972.27;110134;1241;58871;-64
2023/09/05 11:29:58;;;;;;;3.40;2.90;;;;;;;29.63;34.62;97973.09;110109;1245;58879;-65
2023/09/05 11:32:32;;;;;;;3.40;2.90;;;;;;;29.71;34.92;97973.13;110097;1245;71185;-65
2023/09/05 11:35:05;;;;;;;2.60;2.40;;;;;;;29.89;34.71;97974.37;110152;1245;69133;-66
2023/09/05 11:37:34;;;;;;;3.10;2.80;;;;;;;30.35;32.85;97966.48;110175;1245;69968;-65
2023/09/05 11:40:15;;;;;;;3.00;2.40;;;;;;;31.16;31.98;97961.77;110098;1244;58867;-64
2023/09/05 11:42:43;;;;;;;2.70;2.50;;;;;;;31.69;33.06;97960.52;110146;1241;58913;-65